createdAt,value
2023-04-08T00:02:25.395Z,3.45
2023-04-08T00:05:28.367Z,3.78
2023-04-08T00:08:31.681Z,6.00
2023-04-08T00:11:35.933Z,3.35
2023-04-08T00:14:38.832Z,4.68
2023-04-08T00:17:43.329Z,4.60
2023-04-08T00:20:46.488Z,3.10
2023-04-08T00:23:49.206Z,4.53
2023-04-08T00:26:53.316Z,4.35
2023-04-08T00:29:56.386Z,3.60
2023-04-08T00:32:59.274Z,4.05
2023-04-08T00:36:02.661Z,4.57
2023-04-08T00:39:06.863Z,2.97
2023-04-08T00:42:11.790Z,3.78
2023-04-08T00:45:14.719Z,3.33
2023-04-08T00:48:17.527Z,4.57
2023-04-08T00:51:20.462Z,3.83
2023-04-08T00:54:23.246Z,4.70
2023-04-08T00:57:27.529Z,3.58
2023-04-08T01:00:31.814Z,5.15
2023-04-08T01:03:40.585Z,3.30
2023-04-08T01:06:50.493Z,3.47
2023-04-08T01:09:56.473Z,3.30
2023-04-08T01:13:05.792Z,3.67
2023-04-08T01:16:12.130Z,3.00
2023-04-08T01:19:28.947Z,4.03
2023-04-08T01:22:40.561Z,4.05
2023-04-08T01:25:47.440Z,4.35
2023-04-08T01:28:52.118Z,4.60
2023-04-08T01:31:56.303Z,4.05
2023-04-08T01:35:00.300Z,4.00
2023-04-08T01:38:07.879Z,3.97
2023-04-08T01:41:12.645Z,3.60
2023-04-08T01:44:17.545Z,3.33
2023-04-08T01:47:20.725Z,3.38
2023-04-08T01:50:24.860Z,4.85
2023-04-08T01:53:27.713Z,4.00
2023-04-08T01:56:37.551Z,4.95
2023-04-08T01:59:42.121Z,4.07
2023-04-08T02:02:47.316Z,3.13
2023-04-08T02:05:50.767Z,3.42
2023-04-08T02:08:54.384Z,3.63
2023-04-08T02:11:58.972Z,4.97
2023-04-08T02:15:02.144Z,5.70
2023-04-08T02:18:12.518Z,3.67
2023-04-08T02:21:16.839Z,3.05
2023-04-08T02:24:21.167Z,3.65
2023-04-08T02:27:27.969Z,4.35
2023-04-08T02:30:32.371Z,3.70
2023-04-08T02:33:37.062Z,3.70
2023-04-08T02:36:41.070Z,3.13
2023-04-08T02:39:43.891Z,3.30
2023-04-08T02:42:48.938Z,3.15
2023-04-08T02:45:51.744Z,3.55
2023-04-08T02:48:54.916Z,3.88
2023-04-08T02:51:57.700Z,4.25
2023-04-08T02:55:00.624Z,4.10
2023-04-08T02:58:04.757Z,4.53
2023-04-08T03:01:10.051Z,3.58
2023-04-08T03:04:12.977Z,4.30
2023-04-08T03:07:15.735Z,3.95
2023-04-08T03:10:18.543Z,3.22
2023-04-08T03:13:22.785Z,4.10
2023-04-08T03:16:25.754Z,4.20
2023-04-08T03:19:28.590Z,3.90
2023-04-08T03:22:31.378Z,3.60
2023-04-08T03:25:34.208Z,3.63
2023-04-08T03:28:38.460Z,4.40
2023-04-08T03:31:41.530Z,4.13
2023-04-08T03:34:44.298Z,3.92
2023-04-08T03:37:47.190Z,3.53
2023-04-08T03:40:49.942Z,4.78
2023-04-08T03:43:54.031Z,3.40
2023-04-08T03:46:56.854Z,4.07
2023-04-08T03:49:59.619Z,4.55
2023-04-08T03:53:02.397Z,4.68
2023-04-08T03:56:05.474Z,4.28
2023-04-08T03:59:09.637Z,3.50
2023-04-08T04:02:12.503Z,3.88
2023-04-08T04:05:15.423Z,4.10
2023-04-08T04:08:18.385Z,3.85
2023-04-08T04:11:21.364Z,5.07
2023-04-08T04:14:25.738Z,4.40
2023-04-08T04:17:28.534Z,4.07
2023-04-08T04:20:31.431Z,5.80
2023-04-08T04:23:34.460Z,5.40
2023-04-08T04:26:37.233Z,4.20
2023-04-08T04:29:41.342Z,4.60
2023-04-08T04:32:44.273Z,4.45
2023-04-08T04:35:47.107Z,4.53
2023-04-08T04:38:50.921Z,3.50
2023-04-08T04:41:53.737Z,3.65
2023-04-08T04:44:58.856Z,4.63
2023-04-08T04:48:01.701Z,4.60
2023-04-08T04:51:04.639Z,3.70
2023-04-08T04:54:07.415Z,6.00
2023-04-08T04:57:11.032Z,3.85
2023-04-08T05:00:15.731Z,5.95
2023-04-08T05:03:18.672Z,4.15
2023-04-08T05:06:21.686Z,4.40
2023-04-08T05:09:24.428Z,5.13
2023-04-08T05:12:28.140Z,4.80
2023-04-08T05:15:33.548Z,4.57
2023-04-08T05:18:36.632Z,6.88
2023-04-08T05:21:39.401Z,4.35
2023-04-08T05:24:42.170Z,4.78
2023-04-08T05:27:44.917Z,4.88
2023-04-08T05:30:52.052Z,3.97
2023-04-08T05:33:54.985Z,4.95
2023-04-08T05:36:57.763Z,4.30
2023-04-08T05:40:00.602Z,4.47
2023-04-08T05:43:03.336Z,5.65
2023-04-08T05:46:11.598Z,5.40
2023-04-08T05:49:14.380Z,3.97
2023-04-08T05:52:17.525Z,4.57
2023-04-08T05:55:20.760Z,5.38
2023-04-08T05:58:23.491Z,4.82
2023-04-08T06:01:27.870Z,4.72
2023-04-08T06:04:30.741Z,4.75
2023-04-08T06:07:33.660Z,3.88
2023-04-08T06:10:36.439Z,4.93
2023-04-08T06:13:39.285Z,4.80
2023-04-08T06:16:43.562Z,5.60
2023-04-08T06:19:46.396Z,4.35
2023-04-08T06:22:49.176Z,4.53
2023-04-08T06:25:52.220Z,5.18
2023-04-08T06:28:55.001Z,5.95
2023-04-08T06:31:59.147Z,5.43
2023-04-08T06:35:01.950Z,4.95
2023-04-08T06:38:04.753Z,5.43
2023-04-08T06:41:08.142Z,7.32
2023-04-08T06:44:11.112Z,6.38
2023-04-08T06:47:16.498Z,5.05
2023-04-08T06:50:19.474Z,5.32
2023-04-08T06:53:23.748Z,5.18
2023-04-08T06:56:26.644Z,5.22
2023-04-08T06:59:30.443Z,5.72
2023-04-08T07:02:34.641Z,5.63
2023-04-08T07:05:38.585Z,6.47
2023-04-08T07:08:41.548Z,4.78
2023-04-08T07:11:44.297Z,5.72
2023-04-08T07:14:47.087Z,5.57
2023-04-08T07:17:51.685Z,5.93
2023-04-08T07:20:55.043Z,5.18
2023-04-08T07:23:57.821Z,6.68
2023-04-08T07:27:00.610Z,4.55
2023-04-08T07:30:03.435Z,4.22
2023-04-08T07:33:07.609Z,5.38
2023-04-08T07:36:11.476Z,4.80
2023-04-08T07:39:14.227Z,4.70
2023-04-08T07:42:16.971Z,6.45
2023-04-08T07:45:19.811Z,6.70
2023-04-08T07:48:24.004Z,4.65
2023-04-08T07:51:27.706Z,4.45
2023-04-08T07:54:34.188Z,5.45
2023-04-08T07:57:36.997Z,5.88
2023-04-08T08:00:40.836Z,6.20
2023-04-08T08:03:45.853Z,5.35
2023-04-08T08:06:48.857Z,6.05
2023-04-08T08:09:51.639Z,4.82
2023-04-08T08:12:54.435Z,6.47
2023-04-08T08:15:57.299Z,4.03
2023-04-08T08:19:01.723Z,5.13
2023-04-08T08:22:04.521Z,6.55
2023-04-08T08:25:09.926Z,7.85
2023-04-08T08:28:12.833Z,5.22
2023-04-08T08:31:15.739Z,5.25
2023-04-08T08:34:20.059Z,6.93
2023-04-08T08:37:22.891Z,8.90
2023-04-08T08:40:25.762Z,9.35
2023-04-08T08:43:30.088Z,8.27
2023-04-08T08:46:33.142Z,7.10
2023-04-08T08:49:37.424Z,8.02
2023-04-08T08:52:40.208Z,9.45
2023-04-08T08:58:49.211Z,9.10
2023-04-08T09:01:52.094Z,13.50
2023-04-08T09:05:01.195Z,12.38
2023-04-08T09:08:04.420Z,10.70
2023-04-08T09:11:14.998Z,12.27
2023-04-08T09:14:22.546Z,11.85
2023-04-08T09:17:36.220Z,27.80
2023-04-08T09:20:53.434Z,24.60
2023-04-08T09:24:06.565Z,67.72
2023-04-08T09:27:12.381Z,47.75
2023-04-08T09:30:15.535Z,61.35
2023-04-08T09:33:18.282Z,113.00
2023-04-08T09:36:22.518Z,137.85
2023-04-08T09:39:25.500Z,110.32
2023-04-08T09:42:28.606Z,108.97
2023-04-08T09:45:34.844Z,96.78
2023-04-08T09:48:42.759Z,106.72
2023-04-08T09:51:57.602Z,151.68
2023-04-08T09:55:03.848Z,166.30
2023-04-08T09:58:12.634Z,130.60
2023-04-08T10:01:16.381Z,131.55
2023-04-08T10:04:22.566Z,139.77
2023-04-08T10:07:27.259Z,109.97
2023-04-08T10:10:30.251Z,119.68
2023-04-08T10:13:34.829Z,104.05
2023-04-08T10:16:38.870Z,110.43
2023-04-08T10:19:42.073Z,106.53
2023-04-08T10:22:49.977Z,108.95
2023-04-08T10:25:52.778Z,97.05
2023-04-08T10:28:55.489Z,111.07
2023-04-08T10:31:58.487Z,96.22
2023-04-08T10:35:01.610Z,95.82
2023-04-08T10:38:05.811Z,88.93
2023-04-08T10:41:08.666Z,93.13
2023-04-08T10:44:18.038Z,82.97
2023-04-08T10:47:28.411Z,95.25
2023-04-08T10:50:32.323Z,91.63
2023-04-08T10:53:37.833Z,87.43
2023-04-08T10:56:46.483Z,82.85
2023-04-08T10:59:49.275Z,88.63
2023-04-08T11:02:52.150Z,87.55
2023-04-08T11:05:58.939Z,74.15
2023-04-08T11:09:04.201Z,71.65
2023-04-08T11:12:07.089Z,82.25
2023-04-08T11:15:11.116Z,83.25
2023-04-08T11:18:14.642Z,74.82
2023-04-08T11:21:18.382Z,62.63
2023-04-08T11:24:23.512Z,73.25
2023-04-08T11:27:27.083Z,71.25
2023-04-08T11:30:31.160Z,70.13
2023-04-08T11:33:35.058Z,63.78
2023-04-08T11:36:37.911Z,66.90
2023-04-08T11:39:44.078Z,71.90
2023-04-08T11:42:47.226Z,74.22
2023-04-08T11:45:50.316Z,64.90
2023-04-08T11:49:04.329Z,61.53
2023-04-08T11:52:07.524Z,58.80
2023-04-08T11:55:12.564Z,58.17
2023-04-08T11:58:15.860Z,59.22
2023-04-08T12:01:19.092Z,60.58
2023-04-08T12:04:22.040Z,65.05
2023-04-08T12:07:24.877Z,62.35
2023-04-08T12:10:29.126Z,55.92
2023-04-08T12:13:32.415Z,63.42
2023-04-08T12:16:35.390Z,61.00
2023-04-08T12:19:38.704Z,61.10
2023-04-08T12:22:41.703Z,50.80
2023-04-08T12:25:45.828Z,57.88
2023-04-08T12:28:48.558Z,55.38
2023-04-08T12:31:51.659Z,53.40
2023-04-08T12:34:54.598Z,54.30
2023-04-08T12:37:57.375Z,56.25
2023-04-08T12:41:01.547Z,52.35
2023-04-08T12:44:04.647Z,48.58
2023-04-08T12:47:07.471Z,52.72
2023-04-08T12:50:11.276Z,58.67
2023-04-08T12:53:14.099Z,55.33
2023-04-08T12:56:18.404Z,52.70
2023-04-08T12:59:21.173Z,53.90
2023-04-08T13:02:25.556Z,45.13
2023-04-08T13:05:41.906Z,48.00
2023-04-08T13:08:45.726Z,46.03
2023-04-08T13:11:50.316Z,48.38
2023-04-08T13:14:53.116Z,47.20
2023-04-08T13:17:56.184Z,53.20
2023-04-08T13:20:59.153Z,49.25
2023-04-08T13:24:02.238Z,46.33
2023-04-08T13:27:06.566Z,46.97
2023-04-08T13:30:10.587Z,51.83
2023-04-08T13:33:13.361Z,50.60
2023-04-08T13:36:16.124Z,46.88
2023-04-08T13:39:18.993Z,47.72
2023-04-08T13:42:23.461Z,47.00
2023-04-08T13:45:26.568Z,49.72
2023-04-08T13:48:29.307Z,47.92
2023-04-08T13:51:32.052Z,43.85
2023-04-08T13:54:34.836Z,45.03
2023-04-08T13:57:39.034Z,40.17
2023-04-08T14:00:41.838Z,43.13
2023-04-08T14:03:44.603Z,38.33
2023-04-08T14:06:47.402Z,41.78
2023-04-08T14:09:50.297Z,42.55
2023-04-08T14:12:54.455Z,39.55
2023-04-08T14:15:58.420Z,42.13
2023-04-08T14:19:01.296Z,35.80
2023-04-08T14:22:04.038Z,39.45
2023-04-08T14:25:07.138Z,37.90
2023-04-08T14:28:11.361Z,37.95
2023-04-08T14:31:14.170Z,42.58
2023-04-08T14:34:16.888Z,39.50
2023-04-08T14:37:19.624Z,44.72
2023-04-08T14:40:22.428Z,45.20
2023-04-08T14:43:26.676Z,36.95
2023-04-08T14:46:29.596Z,36.65
2023-04-08T14:49:32.347Z,38.08
2023-04-08T14:52:35.402Z,35.97
2023-04-08T14:55:38.532Z,32.25
2023-04-08T14:58:42.682Z,36.22
2023-04-08T15:01:45.888Z,31.55
2023-04-08T15:04:48.805Z,34.95
2023-04-08T15:07:51.711Z,36.40
2023-04-08T15:10:54.561Z,32.63
2023-04-08T15:13:58.735Z,31.60
2023-04-08T15:17:01.556Z,35.92
2023-04-08T15:20:04.681Z,33.70
2023-04-08T15:23:07.887Z,32.65
2023-04-08T15:26:11.345Z,32.30
2023-04-08T15:29:15.582Z,30.30
2023-04-08T15:32:18.493Z,33.28
2023-04-08T15:35:21.246Z,32.03
2023-04-08T15:38:24.083Z,28.45
2023-04-08T15:41:27.129Z,37.65
2023-04-08T15:44:33.466Z,33.35
2023-04-08T15:47:36.754Z,28.45
2023-04-08T15:50:39.835Z,32.58
2023-04-08T15:53:42.903Z,30.58
2023-04-08T15:56:46.616Z,28.05
2023-04-08T15:59:50.757Z,30.90
2023-04-08T16:02:53.687Z,31.27
2023-04-08T16:05:56.607Z,30.15
2023-04-08T16:08:59.316Z,29.13
2023-04-08T16:12:02.621Z,31.20
2023-04-08T16:15:08.411Z,26.25
2023-04-08T16:18:11.524Z,29.30
2023-04-08T16:21:14.514Z,27.95
2023-04-08T16:24:20.208Z,27.33
2023-04-08T16:27:23.316Z,25.17
2023-04-08T16:30:27.467Z,25.00
2023-04-08T16:33:30.857Z,27.15
2023-04-08T16:36:33.585Z,24.92
2023-04-08T16:39:36.527Z,27.48
2023-04-08T16:42:39.272Z,25.92
2023-04-08T16:45:43.458Z,28.33
2023-04-08T16:48:46.458Z,26.33
2023-04-08T16:51:49.466Z,24.13
2023-04-08T16:54:52.383Z,27.13
2023-04-08T16:57:55.419Z,30.00
2023-04-08T17:00:59.550Z,26.85
2023-04-08T17:04:02.447Z,22.98
2023-04-08T17:07:05.227Z,27.60
2023-04-08T17:10:09.098Z,26.08
2023-04-08T17:13:14.687Z,24.15
2023-04-08T17:16:19.508Z,23.83
2023-04-08T17:19:22.282Z,24.77
2023-04-08T17:22:25.077Z,25.38
2023-04-08T17:25:27.820Z,24.30
2023-04-08T17:28:30.583Z,24.13
2023-04-08T17:31:34.749Z,19.92
2023-04-08T17:34:37.999Z,26.25
2023-04-08T17:37:40.945Z,23.38
2023-04-08T17:40:43.738Z,23.30
2023-04-08T17:43:46.596Z,22.55
2023-04-08T17:46:50.732Z,20.17
2023-04-08T17:49:56.054Z,23.10
2023-04-08T17:52:58.841Z,21.08
2023-04-08T17:56:01.873Z,20.95
2023-04-08T17:59:04.664Z,26.42
2023-04-08T18:02:08.921Z,22.50
2023-04-08T18:05:12.597Z,23.20
2023-04-08T18:08:15.401Z,21.15
2023-04-08T18:11:18.262Z,22.27
2023-04-08T18:14:21.045Z,23.00
2023-04-08T18:17:25.240Z,22.75
2023-04-08T18:20:28.714Z,20.75
2023-04-08T18:23:31.512Z,19.63
2023-04-08T18:26:34.275Z,20.77
2023-04-08T18:29:37.068Z,20.90
2023-04-08T18:32:41.203Z,18.65
2023-04-08T18:35:44.293Z,20.60
2023-04-08T18:38:48.603Z,33.17
2023-04-08T18:41:51.341Z,21.98
2023-04-08T18:44:54.060Z,18.00
2023-04-08T18:47:58.615Z,20.88
2023-04-08T18:51:02.029Z,23.08
2023-04-08T18:54:04.957Z,23.10
2023-04-08T18:57:07.906Z,22.95
2023-04-08T19:00:11.380Z,18.30
2023-04-08T19:03:15.744Z,22.55
2023-04-08T19:06:22.378Z,17.20
2023-04-08T19:09:25.136Z,19.17
2023-04-08T19:12:29.485Z,19.50
2023-04-08T19:15:32.228Z,19.17
2023-04-08T19:18:36.400Z,20.90
2023-04-08T19:21:39.177Z,22.73
2023-04-08T19:24:41.983Z,17.40
2023-04-08T19:27:45.939Z,20.85
2023-04-08T19:30:50.558Z,18.05
2023-04-08T19:33:55.280Z,17.60
2023-04-08T19:36:58.118Z,21.90
2023-04-08T19:40:01.087Z,15.15
2023-04-08T19:43:03.858Z,16.15
2023-04-08T19:46:06.793Z,18.08
2023-04-08T19:49:10.973Z,18.92
2023-04-08T19:52:13.752Z,16.00
2023-04-08T19:55:16.918Z,14.20
2023-04-08T19:58:19.731Z,19.00
2023-04-08T20:01:22.589Z,18.25
2023-04-08T20:04:26.909Z,14.30
2023-04-08T20:07:29.792Z,17.00
2023-04-08T20:10:32.553Z,14.55
2023-04-08T20:13:35.289Z,15.15
2023-04-08T20:16:38.072Z,13.45
2023-04-08T20:19:42.235Z,15.23
2023-04-08T20:22:46.381Z,15.30
2023-04-08T20:25:49.367Z,16.10
2023-04-08T20:28:52.288Z,16.88
2023-04-08T20:31:55.482Z,16.60
2023-04-08T20:35:00.686Z,14.52
2023-04-08T20:38:03.457Z,16.65
2023-04-08T20:41:06.480Z,18.50
2023-04-08T20:44:10.535Z,16.73
2023-04-08T20:47:14.175Z,18.65
2023-04-08T20:50:18.407Z,13.18
2023-04-08T20:53:23.619Z,12.43
2023-04-08T20:56:27.533Z,15.80
2023-04-08T20:59:30.337Z,18.23
2023-04-08T21:02:33.679Z,13.75
2023-04-08T21:05:39.257Z,13.30
2023-04-08T21:08:42.035Z,14.60
2023-04-08T21:11:45.050Z,15.13
2023-04-08T21:14:47.852Z,15.35
2023-04-08T21:17:50.743Z,13.25
2023-04-08T21:20:55.059Z,14.77
2023-04-08T21:23:57.863Z,14.23
2023-04-08T21:27:01.309Z,13.38
2023-04-08T21:30:04.746Z,18.25
2023-04-08T21:33:07.901Z,15.35
2023-04-08T21:36:12.156Z,15.75
2023-04-08T21:39:17.505Z,12.93
2023-04-08T21:42:22.746Z,15.35
2023-04-08T21:45:25.933Z,17.27
2023-04-08T21:48:28.757Z,14.55
2023-04-08T21:51:32.929Z,13.27
2023-04-08T21:54:35.755Z,12.68
2023-04-08T21:57:39.287Z,11.48
2023-04-08T22:00:42.048Z,12.68
2023-04-08T22:03:44.913Z,14.70
2023-04-08T22:06:49.783Z,11.48
2023-04-08T22:09:54.480Z,12.55
2023-04-08T22:12:57.396Z,11.85
2023-04-08T22:16:00.154Z,16.10
2023-04-08T22:19:02.937Z,14.60
2023-04-08T22:22:07.094Z,10.45
2023-04-08T22:25:10.567Z,11.05
2023-04-08T22:28:13.376Z,11.43
2023-04-08T22:31:16.296Z,14.25
2023-04-08T22:34:19.185Z,14.27
2023-04-08T22:37:23.334Z,12.63
2023-04-08T22:40:26.158Z,11.38
2023-04-08T22:43:28.990Z,13.93
2023-04-08T22:46:32.038Z,10.38
2023-04-08T22:49:35.483Z,12.32
2023-04-08T22:52:39.737Z,12.95
2023-04-08T22:55:42.505Z,9.43
2023-04-08T22:58:45.376Z,11.27
2023-04-08T23:01:48.259Z,12.68
2023-04-08T23:04:54.686Z,11.32
2023-04-08T23:07:58.826Z,13.80
2023-04-08T23:11:01.637Z,10.70
2023-04-08T23:14:04.450Z,9.65
2023-04-08T23:17:07.212Z,13.82
2023-04-08T23:20:10.576Z,10.60
2023-04-08T23:23:14.640Z,10.38
2023-04-08T23:26:20.889Z,12.02
2023-04-08T23:29:23.712Z,10.68
2023-04-08T23:32:27.475Z,10.75
2023-04-08T23:35:30.584Z,10.50
2023-04-08T23:38:34.862Z,14.52
2023-04-08T23:41:37.624Z,11.00
2023-04-08T23:44:40.429Z,10.88
2023-04-08T23:47:43.248Z,13.32
2023-04-08T23:50:46.066Z,9.98
2023-04-08T23:53:51.742Z,12.35
2023-04-08T23:56:54.469Z,11.10
2023-04-08T23:59:58.605Z,11.07
